Terminal Aerodrome Forecast
Issued by NWS Austin/San Antonio, TX

Home | Current Version | Previous Version | Text Only | Print | Product List | Glossary On
Versions: 1 2 3 4 5 6 7 8 9 10 11 12 13 14 15 16 17 18 19 20 21 22 23 24
000
FTUS44 KEWX 310333 AAA
TAFSAT
TAF AMD
KSAT 310333Z 3104/0106 08003KT P6SM VCSH FEW045 SCT150 BKN250
     FM310600 01004KT P6SM SCT010 BKN035
     FM311700 06007KT P6SM BKN050=

USA.gov is the U.S. government's official web portal to all federal, state and local government web resources and services.